createdAt,value
2022-10-23T00:01:46.208Z,184.97
2022-10-23T00:04:16.431Z,178.53
2022-10-23T00:06:44.970Z,174.80
2022-10-23T00:09:15.976Z,179.63
2022-10-23T00:11:44.584Z,184.60
2022-10-23T00:14:13.494Z,181.40
2022-10-23T00:16:41.185Z,190.23
2022-10-23T00:19:08.887Z,181.67
2022-10-23T00:21:36.695Z,172.93
2022-10-23T00:24:04.684Z,181.47
2022-10-23T00:26:32.463Z,178.70
2022-10-23T00:28:59.991Z,179.07
2022-10-23T00:31:28.879Z,178.73
2022-10-23T00:33:56.404Z,178.00
2022-10-23T00:36:23.982Z,177.40
2022-10-23T00:38:52.026Z,182.30
2022-10-23T00:41:21.588Z,180.77
2022-10-23T00:44:01.874Z,187.03
2022-10-23T00:46:31.578Z,178.67
2022-10-23T00:48:59.937Z,177.80
2022-10-23T00:51:30.599Z,180.03
2022-10-23T00:54:22.780Z,181.23
2022-10-23T00:56:48.815Z,177.17
2022-10-23T00:59:16.622Z,181.83
2022-10-23T01:01:45.636Z,177.43
2022-10-23T01:04:13.282Z,177.73
2022-10-23T01:06:46.245Z,173.10
2022-10-23T01:09:19.506Z,181.97
2022-10-23T01:11:51.062Z,176.27
2022-10-23T01:14:26.538Z,185.40
2022-10-23T01:17:04.208Z,186.20
2022-10-23T01:19:44.627Z,185.00
2022-10-23T01:22:29.033Z,186.60
2022-10-23T01:25:00.410Z,181.53
2022-10-23T01:27:34.367Z,188.90
2022-10-23T01:30:07.182Z,185.60
2022-10-23T01:32:44.037Z,186.80
2022-10-23T01:35:14.992Z,180.17
2022-10-23T01:37:45.011Z,177.60
2022-10-23T01:40:21.206Z,184.50
2022-10-23T01:42:54.781Z,184.90
2022-10-23T01:45:28.254Z,181.83
2022-10-23T01:47:57.548Z,183.50
2022-10-23T01:50:27.649Z,195.63
2022-10-23T01:52:55.577Z,184.97
2022-10-23T01:55:24.738Z,185.80
2022-10-23T01:57:55.594Z,182.40
2022-10-23T02:00:23.686Z,177.97
2022-10-23T02:02:52.898Z,191.30
2022-10-23T02:05:25.021Z,185.47
2022-10-23T02:07:53.864Z,188.17
2022-10-23T02:10:22.410Z,189.90
2022-10-23T02:12:58.864Z,190.60
2022-10-23T02:15:31.845Z,193.70
2022-10-23T02:18:07.332Z,194.23
2022-10-23T02:20:40.579Z,194.93
2022-10-23T02:23:17.757Z,196.20
2022-10-23T02:25:51.478Z,194.27
2022-10-23T02:28:27.499Z,196.50
2022-10-23T02:30:58.963Z,197.40
2022-10-23T02:33:28.346Z,201.53
2022-10-23T02:35:55.951Z,198.97
2022-10-23T02:38:35.474Z,201.33
2022-10-23T02:41:18.189Z,197.53
2022-10-23T02:43:55.729Z,197.03
2022-10-23T02:46:29.959Z,200.87
2022-10-23T02:49:08.631Z,208.20
2022-10-23T02:51:48.448Z,213.23
2022-10-23T02:54:24.594Z,209.77
2022-10-23T02:56:58.586Z,208.93
2022-10-23T02:59:35.658Z,220.50
2022-10-23T03:02:07.724Z,206.80
2022-10-23T03:04:38.812Z,202.67
2022-10-23T03:07:06.421Z,203.77
2022-10-23T03:09:33.967Z,203.63
2022-10-23T03:12:01.571Z,209.50
2022-10-23T03:14:30.459Z,206.60
2022-10-23T03:16:58.009Z,208.83
2022-10-23T03:19:25.549Z,210.33
2022-10-23T03:21:53.074Z,213.93
2022-10-23T03:24:20.621Z,213.10
2022-10-23T03:26:48.269Z,212.83
2022-10-23T03:29:15.821Z,266.77
2022-10-23T03:31:44.746Z,263.10
2022-10-23T03:34:13.640Z,272.30
2022-10-23T03:36:41.601Z,279.50
2022-10-23T03:39:09.520Z,278.60
2022-10-23T03:41:37.093Z,287.90
2022-10-23T03:46:37.643Z,291.63
2022-10-23T03:49:06.534Z,287.70
2022-10-23T03:51:34.498Z,275.80
2022-10-23T03:54:02.051Z,286.70
2022-10-23T03:56:29.650Z,278.60
2022-10-23T03:58:57.186Z,286.00
2022-10-23T04:01:25.165Z,279.30
2022-10-23T04:03:53.095Z,287.50
2022-10-23T04:06:22.006Z,283.73
2022-10-23T04:08:49.638Z,291.40
2022-10-23T04:11:17.251Z,288.40
2022-10-23T04:13:44.809Z,289.33
2022-10-23T04:16:12.374Z,286.33
2022-10-23T04:18:41.450Z,287.53
2022-10-23T04:21:09.166Z,279.23
2022-10-23T04:23:38.146Z,285.20
2022-10-23T04:26:05.843Z,281.67
2022-10-23T04:28:33.437Z,292.40
2022-10-23T04:31:01.031Z,301.97
2022-10-23T04:33:28.894Z,309.70
2022-10-23T04:35:56.522Z,308.33
2022-10-23T04:38:24.062Z,304.20
2022-10-23T04:40:53.087Z,299.90
2022-10-23T04:43:20.659Z,306.50
2022-10-23T04:45:49.831Z,294.60
2022-10-23T04:48:17.393Z,309.20
2022-10-23T04:53:13.386Z,316.90
2022-10-23T04:55:41.266Z,242.77
2022-10-23T04:58:10.158Z,237.60
2022-10-23T05:00:37.727Z,228.50
2022-10-23T05:03:05.314Z,238.73
2022-10-23T05:05:32.867Z,233.93
2022-10-23T05:08:00.436Z,230.90
2022-10-23T05:10:28.050Z,233.97
2022-10-23T05:12:55.650Z,237.07
2022-10-23T05:15:24.594Z,231.63
2022-10-23T05:17:55.790Z,243.33
2022-10-23T05:20:27.273Z,249.70
2022-10-23T05:22:57.927Z,250.37
2022-10-23T05:25:25.492Z,251.00
2022-10-23T05:27:53.503Z,256.23
2022-10-23T05:30:21.022Z,278.87
2022-10-23T05:32:50.011Z,277.00
2022-10-23T05:35:22.215Z,280.60
2022-10-23T05:37:52.108Z,286.03
2022-10-23T05:40:20.044Z,281.63
2022-10-23T05:42:48.106Z,277.80
2022-10-23T05:45:16.159Z,286.13
2022-10-23T05:47:45.354Z,288.77
2022-10-23T05:50:14.490Z,290.07
2022-10-23T05:52:42.337Z,296.63
2022-10-23T05:55:10.861Z,294.60
2022-10-23T05:57:38.389Z,295.67
2022-10-23T06:00:07.021Z,294.20
2022-10-23T06:02:35.151Z,293.23
2022-10-23T06:05:02.749Z,288.70
2022-10-23T06:07:35.045Z,283.60
2022-10-23T06:10:04.092Z,294.70
2022-10-23T06:12:32.814Z,297.10
2022-10-23T06:15:00.375Z,293.10
2022-10-23T06:17:28.531Z,294.33
2022-10-23T06:20:00.690Z,293.83
2022-10-23T06:22:28.464Z,298.60
2022-10-23T06:24:57.398Z,288.90
2022-10-23T06:27:25.010Z,290.10
2022-10-23T06:29:52.866Z,299.67
2022-10-23T06:32:20.533Z,306.17
2022-10-23T06:34:48.079Z,311.87
2022-10-23T06:37:15.622Z,311.20
2022-10-23T06:39:43.175Z,327.90
2022-10-23T06:42:12.753Z,315.70
2022-10-23T06:44:40.383Z,322.93
2022-10-23T06:47:09.914Z,312.60
2022-10-23T06:49:37.518Z,304.67
2022-10-23T06:52:05.197Z,314.73
2022-10-23T06:54:32.846Z,321.23
2022-10-23T06:57:00.538Z,327.67
2022-10-23T06:59:29.633Z,318.10
2022-10-23T07:01:57.186Z,340.27
2022-10-23T07:04:25.237Z,361.77
2022-10-23T07:06:52.791Z,328.63
2022-10-23T07:09:20.310Z,351.83
2022-10-23T07:11:48.006Z,341.17
2022-10-23T07:14:15.554Z,344.97
2022-10-23T07:16:44.455Z,331.87
2022-10-23T07:19:12.006Z,355.97
2022-10-23T07:21:39.597Z,347.30
2022-10-23T07:24:07.830Z,333.63
2022-10-23T07:26:35.429Z,334.90
2022-10-23T07:29:02.958Z,366.90
2022-10-23T07:31:30.756Z,369.03
2022-10-23T07:34:00.014Z,347.03
2022-10-23T07:36:27.663Z,354.10
2022-10-23T07:38:55.250Z,352.50
2022-10-23T07:41:22.911Z,354.83
2022-10-23T07:43:50.535Z,348.10
2022-10-23T07:46:18.094Z,351.53
2022-10-23T07:48:45.906Z,348.50
2022-10-23T07:51:16.906Z,356.93
2022-10-23T07:53:45.133Z,354.77
2022-10-23T07:56:15.907Z,351.57
2022-10-23T07:58:43.576Z,355.47
2022-10-23T08:01:19.319Z,347.93
2022-10-23T08:03:47.790Z,345.43
2022-10-23T08:06:16.695Z,344.73
2022-10-23T08:11:15.915Z,329.13
2022-10-23T08:13:44.200Z,334.40
2022-10-23T08:16:11.756Z,330.03
2022-10-23T08:18:40.907Z,338.10
2022-10-23T08:21:08.445Z,328.50
2022-10-23T08:23:37.692Z,330.20
2022-10-23T08:26:07.076Z,308.30
2022-10-23T08:28:35.083Z,303.20
2022-10-23T08:31:09.121Z,294.00
2022-10-23T08:33:36.751Z,294.60
2022-10-23T08:36:04.686Z,261.23
2022-10-23T08:38:33.760Z,243.57
2022-10-23T08:41:02.771Z,237.97
2022-10-23T08:43:37.064Z,224.77
2022-10-23T08:46:09.527Z,218.53
2022-10-23T08:48:42.512Z,215.47
2022-10-23T08:51:17.400Z,212.67
2022-10-23T08:53:53.642Z,203.10
2022-10-23T08:56:27.006Z,199.27
2022-10-23T08:59:00.754Z,182.30
2022-10-23T09:01:38.688Z,146.80
2022-10-23T09:04:07.226Z,125.70
2022-10-23T09:06:40.261Z,104.03
2022-10-23T09:09:32.746Z,83.00
2022-10-23T09:12:08.435Z,65.50
2022-10-23T09:14:51.114Z,53.50
2022-10-23T09:17:25.707Z,45.10
2022-10-23T09:20:09.163Z,43.13
2022-10-23T09:22:36.730Z,41.60
2022-10-23T09:25:04.505Z,47.03
2022-10-23T09:27:33.450Z,42.27
2022-10-23T09:30:01.089Z,38.03
2022-10-23T09:32:36.771Z,40.37
2022-10-23T09:35:05.890Z,36.67
2022-10-23T09:37:35.794Z,40.63
2022-10-23T09:40:15.378Z,37.07
2022-10-23T09:42:54.724Z,37.50
2022-10-23T09:45:24.813Z,34.07
2022-10-23T09:47:52.442Z,36.67
2022-10-23T09:50:22.120Z,41.93
2022-10-23T09:52:55.446Z,35.00
2022-10-23T09:55:25.950Z,39.60
2022-10-23T09:57:56.054Z,38.17
2022-10-23T10:00:25.730Z,36.60
2022-10-23T10:02:58.901Z,36.37
2022-10-23T10:05:28.908Z,37.10
2022-10-23T10:08:14.506Z,38.17
2022-10-23T10:10:48.402Z,38.83
2022-10-23T10:13:34.061Z,37.13
2022-10-23T10:16:08.668Z,38.60
2022-10-23T10:18:43.233Z,38.20
2022-10-23T10:21:19.837Z,38.60
2022-10-23T10:23:55.731Z,37.17
2022-10-23T10:26:35.394Z,38.57
2022-10-23T10:29:25.675Z,41.70
2022-10-23T10:32:03.687Z,41.53
2022-10-23T10:34:39.005Z,39.50
2022-10-23T10:37:19.626Z,40.87
2022-10-23T10:39:54.530Z,41.50
2022-10-23T10:42:41.018Z,43.03
2022-10-23T10:45:27.762Z,42.33
2022-10-23T10:48:22.018Z,40.43
2022-10-23T10:50:54.874Z,42.07
2022-10-23T10:53:29.612Z,42.30
2022-10-23T10:56:01.234Z,42.47
2022-10-23T10:58:39.562Z,43.60
2022-10-23T11:01:18.015Z,42.73
2022-10-23T11:03:53.131Z,43.23
2022-10-23T11:06:24.399Z,45.00
2022-10-23T11:08:58.092Z,43.60
2022-10-23T11:11:41.263Z,43.50
2022-10-23T11:14:16.456Z,45.20
2022-10-23T11:16:48.949Z,42.73
2022-10-23T11:19:24.307Z,41.20
2022-10-23T11:21:58.414Z,38.17
2022-10-23T11:24:49.577Z,40.90
2022-10-23T11:27:43.297Z,40.30
2022-10-23T11:30:20.131Z,43.53
2022-10-23T11:33:14.399Z,41.60
2022-10-23T11:36:05.857Z,43.20
2022-10-23T11:38:36.077Z,42.90
2022-10-23T11:41:07.798Z,44.87
2022-10-23T11:43:48.810Z,45.30
2022-10-23T11:46:33.065Z,44.73
2022-10-23T11:49:03.765Z,48.23
2022-10-23T11:51:33.773Z,49.13
2022-10-23T11:54:22.344Z,49.43
2022-10-23T11:56:55.865Z,47.70
2022-10-23T11:59:27.143Z,47.90
2022-10-23T12:01:57.280Z,47.90
2022-10-23T12:04:29.075Z,48.80
2022-10-23T12:06:59.851Z,49.10
2022-10-23T12:09:37.786Z,47.00
2022-10-23T12:12:17.046Z,45.37
2022-10-23T12:14:46.617Z,46.00
2022-10-23T12:17:31.369Z,47.03
2022-10-23T12:20:20.254Z,46.27
2022-10-23T12:22:58.674Z,43.97
2022-10-23T12:25:35.721Z,45.07
2022-10-23T12:28:11.400Z,44.13
2022-10-23T12:30:46.384Z,44.90
2022-10-23T12:33:24.732Z,44.23
2022-10-23T12:36:10.341Z,44.47
2022-10-23T12:38:45.970Z,43.90
2022-10-23T12:41:16.199Z,42.37
2022-10-23T12:43:45.138Z,44.00
2022-10-23T12:46:35.271Z,43.67
2022-10-23T12:49:05.018Z,42.77
2022-10-23T12:51:36.109Z,41.77
2022-10-23T12:54:04.766Z,43.30
2022-10-23T12:56:38.834Z,43.00
2022-10-23T12:59:15.986Z,42.50
2022-10-23T13:01:43.918Z,42.80
2022-10-23T13:04:22.275Z,42.60
2022-10-23T13:06:52.967Z,40.53
2022-10-23T13:09:24.959Z,40.47
2022-10-23T13:11:53.200Z,39.47
2022-10-23T13:14:33.262Z,40.70
2022-10-23T13:17:02.137Z,41.00
2022-10-23T13:19:29.678Z,40.30
2022-10-23T13:21:59.359Z,40.83
2022-10-23T13:24:29.377Z,41.53
2022-10-23T13:26:57.641Z,42.40
2022-10-23T13:29:28.342Z,41.40
2022-10-23T13:31:55.945Z,41.20
2022-10-23T13:34:26.123Z,39.87
2022-10-23T13:36:57.221Z,42.40
2022-10-23T13:39:29.779Z,42.30
2022-10-23T13:41:59.891Z,41.53
2022-10-23T13:44:27.675Z,43.00
2022-10-23T13:46:55.227Z,42.47
2022-10-23T13:49:22.745Z,42.77
2022-10-23T13:51:53.899Z,42.00
2022-10-23T13:54:24.062Z,41.63
2022-10-23T13:56:53.255Z,42.43
2022-10-23T13:59:21.356Z,41.77
2022-10-23T14:01:50.847Z,40.17
2022-10-23T14:04:19.491Z,40.90
2022-10-23T14:06:47.430Z,42.70
2022-10-23T14:09:17.334Z,42.80
2022-10-23T14:11:45.586Z,43.20
2022-10-23T14:14:14.488Z,43.10
2022-10-23T14:16:42.285Z,41.73
2022-10-23T14:19:10.681Z,42.60
2022-10-23T14:21:38.242Z,41.20
2022-10-23T14:24:06.212Z,41.53
2022-10-23T14:26:34.255Z,42.33
2022-10-23T14:29:05.145Z,42.70
2022-10-23T14:31:38.719Z,42.00
2022-10-23T14:34:06.258Z,42.67
2022-10-23T14:36:43.268Z,44.27
2022-10-23T14:39:18.872Z,41.37
2022-10-23T14:41:46.393Z,43.43
2022-10-23T14:44:14.131Z,42.57
2022-10-23T14:46:43.030Z,43.67
2022-10-23T14:49:10.595Z,44.83
2022-10-23T14:51:38.291Z,42.87
2022-10-23T14:54:07.556Z,44.53
2022-10-23T14:56:37.921Z,45.03
2022-10-23T14:59:06.447Z,43.33
2022-10-23T15:01:36.682Z,44.37
2022-10-23T15:04:05.892Z,45.13
2022-10-23T15:06:33.755Z,46.70
2022-10-23T15:09:02.005Z,43.87
2022-10-23T15:11:29.693Z,46.00
2022-10-23T15:13:59.555Z,45.77
2022-10-23T15:16:27.483Z,45.93
2022-10-23T15:18:55.324Z,44.70
2022-10-23T15:21:24.674Z,43.60
2022-10-23T15:23:52.941Z,43.47
2022-10-23T15:26:23.014Z,43.43
2022-10-23T15:28:54.462Z,42.33
2022-10-23T15:31:41.836Z,44.80
2022-10-23T15:34:10.579Z,45.20
2022-10-23T15:36:39.550Z,43.17
2022-10-23T15:39:08.731Z,43.67
2022-10-23T15:41:38.497Z,57.07
2022-10-23T15:44:08.095Z,45.37
2022-10-23T15:46:36.475Z,45.33
2022-10-23T15:49:04.499Z,44.17
2022-10-23T15:51:32.744Z,45.63
2022-10-23T15:54:01.637Z,44.57
2022-10-23T15:56:29.185Z,45.97
2022-10-23T15:58:56.782Z,44.57
2022-10-23T16:01:24.501Z,45.07
2022-10-23T16:03:52.138Z,46.27
2022-10-23T16:06:22.756Z,45.60
2022-10-23T16:08:50.418Z,47.80
2022-10-23T16:11:21.819Z,45.00
2022-10-23T16:13:49.707Z,44.57
2022-10-23T16:16:19.011Z,46.73
2022-10-23T16:18:47.182Z,47.47
2022-10-23T16:21:19.433Z,47.43
2022-10-23T16:23:47.091Z,45.93
2022-10-23T16:26:14.849Z,45.80
2022-10-23T16:28:47.078Z,48.10
2022-10-23T16:31:19.975Z,44.37
2022-10-23T16:33:48.687Z,46.30
2022-10-23T16:36:17.107Z,45.63
2022-10-23T16:38:44.679Z,46.13
2022-10-23T16:41:12.267Z,43.40
2022-10-23T16:43:40.558Z,44.83
2022-10-23T16:46:13.606Z,47.93
2022-10-23T16:48:41.542Z,50.53
2022-10-23T16:51:10.974Z,48.97
2022-10-23T16:53:39.496Z,48.20
2022-10-23T16:56:09.762Z,49.70
2022-10-23T16:58:40.719Z,47.83
2022-10-23T17:01:11.538Z,47.90
2022-10-23T17:03:41.974Z,45.73
2022-10-23T17:06:12.021Z,45.67
2022-10-23T17:08:40.176Z,46.37
2022-10-23T17:11:09.798Z,45.43
2022-10-23T17:13:39.957Z,47.57
2022-10-23T17:16:11.161Z,47.87
2022-10-23T17:18:42.958Z,48.23
2022-10-23T17:21:11.982Z,46.73
2022-10-23T17:23:39.587Z,47.20
2022-10-23T17:26:08.446Z,47.20
2022-10-23T17:28:39.806Z,46.40
2022-10-23T17:31:14.800Z,46.57
2022-10-23T17:33:43.651Z,46.43
2022-10-23T17:36:12.655Z,46.13
2022-10-23T17:38:41.955Z,44.90
2022-10-23T17:41:10.482Z,45.40
2022-10-23T17:43:38.830Z,46.70
2022-10-23T17:46:08.056Z,47.80
2022-10-23T17:48:36.993Z,47.67
2022-10-23T17:51:06.141Z,46.67
2022-10-23T17:53:35.159Z,47.00
2022-10-23T17:56:03.970Z,48.87
2022-10-23T17:58:32.278Z,48.20
2022-10-23T18:01:05.835Z,48.23
2022-10-23T18:03:33.685Z,49.07
2022-10-23T18:06:08.850Z,51.37
2022-10-23T18:08:37.147Z,49.20
2022-10-23T18:11:05.239Z,51.43
2022-10-23T18:13:33.656Z,51.23
2022-10-23T18:16:02.239Z,52.67
2022-10-23T18:18:30.198Z,50.60
2022-10-23T18:20:58.422Z,49.33
2022-10-23T18:23:27.858Z,50.03
2022-10-23T18:25:55.722Z,51.03
2022-10-23T18:28:23.585Z,48.87
2022-10-23T18:30:53.369Z,48.17
2022-10-23T18:33:24.336Z,50.80
2022-10-23T18:35:52.642Z,51.27
2022-10-23T18:38:20.196Z,50.33
2022-10-23T18:40:55.482Z,51.97
2022-10-23T18:43:38.802Z,50.53
2022-10-23T18:46:11.595Z,49.93
2022-10-23T18:48:39.420Z,51.03
2022-10-23T18:51:15.748Z,51.63
2022-10-23T18:53:46.517Z,47.60
2022-10-23T18:56:15.820Z,47.77
2022-10-23T18:58:43.789Z,47.90
2022-10-23T19:01:11.685Z,49.07
2022-10-23T19:03:39.408Z,47.73
2022-10-23T19:06:08.016Z,49.60
2022-10-23T19:08:36.960Z,47.07
2022-10-23T19:11:06.355Z,45.40
2022-10-23T19:13:39.492Z,44.60
2022-10-23T19:16:11.557Z,44.87
2022-10-23T19:18:41.135Z,44.00
2022-10-23T19:21:08.874Z,42.70
2022-10-23T19:23:38.385Z,45.70
2022-10-23T19:26:08.806Z,45.00
2022-10-23T19:28:39.613Z,44.63
2022-10-23T19:31:09.751Z,43.60
2022-10-23T19:33:39.277Z,42.57
2022-10-23T19:36:11.133Z,43.30
2022-10-23T19:38:41.810Z,43.90
2022-10-23T19:41:10.242Z,41.50
2022-10-23T19:43:39.497Z,42.10
2022-10-23T19:46:11.009Z,41.23
2022-10-23T19:48:42.352Z,41.47
2022-10-23T19:51:10.081Z,42.67
2022-10-23T19:53:37.702Z,40.73
2022-10-23T19:56:07.671Z,43.90
2022-10-23T19:58:35.354Z,39.77
2022-10-23T20:01:10.126Z,41.63
2022-10-23T20:03:38.911Z,40.40
2022-10-23T20:06:10.061Z,41.97
2022-10-23T20:08:37.771Z,41.77
2022-10-23T20:11:05.691Z,40.40
2022-10-23T20:13:33.401Z,39.93
2022-10-23T20:16:01.287Z,39.83
2022-10-23T20:18:30.215Z,38.53
2022-10-23T20:20:57.905Z,39.80
2022-10-23T20:23:25.441Z,38.50
2022-10-23T20:25:52.999Z,38.93
2022-10-23T20:28:21.649Z,39.47
2022-10-23T20:30:49.202Z,36.37
2022-10-23T20:33:16.733Z,36.70
2022-10-23T20:35:45.669Z,38.23
2022-10-23T20:38:13.301Z,38.20
2022-10-23T20:40:40.853Z,37.50
2022-10-23T20:43:08.373Z,37.60
2022-10-23T20:45:35.944Z,36.87
2022-10-23T20:48:03.498Z,35.40
2022-10-23T20:50:31.074Z,35.10
2022-10-23T20:52:59.939Z,36.30
2022-10-23T20:55:27.561Z,36.10
2022-10-23T20:57:55.113Z,36.30
2022-10-23T21:00:22.665Z,37.77
2022-10-23T21:02:52.688Z,36.80
2022-10-23T21:05:20.499Z,37.40
2022-10-23T21:07:48.049Z,36.40
2022-10-23T21:10:17.054Z,35.90
2022-10-23T21:12:44.737Z,35.93
2022-10-23T21:15:12.612Z,35.40
2022-10-23T21:17:40.895Z,36.13
2022-10-23T21:20:08.948Z,35.87
2022-10-23T21:22:36.486Z,36.00
2022-10-23T21:25:04.137Z,34.90
2022-10-23T21:27:33.155Z,35.50
2022-10-23T21:30:00.685Z,35.30
2022-10-23T21:32:28.228Z,35.60
2022-10-23T21:34:55.848Z,36.20
2022-10-23T21:37:24.911Z,36.63
2022-10-23T21:39:52.454Z,37.83
2022-10-23T21:42:20.092Z,36.77
2022-10-23T21:44:49.066Z,35.90
2022-10-23T21:47:16.582Z,36.23
2022-10-23T21:49:44.309Z,36.30
2022-10-23T21:52:13.983Z,35.77
2022-10-23T21:54:43.760Z,35.57
2022-10-23T21:57:14.915Z,35.57
2022-10-23T21:59:42.450Z,35.97
2022-10-23T22:02:11.588Z,35.73
2022-10-23T22:04:39.602Z,37.10
2022-10-23T22:07:07.840Z,35.90
2022-10-23T22:09:35.387Z,36.23
2022-10-23T22:12:03.078Z,36.00
2022-10-23T22:14:31.178Z,35.70
2022-10-23T22:16:58.908Z,35.53
2022-10-23T22:19:27.881Z,35.73
2022-10-23T22:21:55.891Z,35.27
2022-10-23T22:24:23.494Z,34.53
2022-10-23T22:26:53.395Z,34.03
2022-10-23T22:29:23.109Z,35.60
2022-10-23T22:31:51.016Z,35.33
2022-10-23T22:34:34.796Z,35.03
2022-10-23T22:37:10.784Z,34.07
2022-10-23T22:39:38.596Z,35.10
2022-10-23T22:42:06.275Z,34.80
2022-10-23T22:44:33.846Z,34.53
2022-10-23T22:47:01.414Z,33.97
2022-10-23T22:49:29.163Z,33.60
2022-10-23T22:51:56.698Z,34.03
2022-10-23T22:54:25.770Z,33.30
2022-10-23T22:56:53.382Z,33.80
2022-10-23T22:59:20.903Z,34.03
2022-10-23T23:01:49.488Z,33.10
2022-10-23T23:04:37.796Z,34.10
2022-10-23T23:07:06.063Z,34.93
2022-10-23T23:09:36.686Z,34.80
2022-10-23T23:12:04.502Z,33.10
2022-10-23T23:14:32.069Z,34.60
2022-10-23T23:16:59.634Z,34.07
2022-10-23T23:19:28.385Z,33.47
2022-10-23T23:21:56.955Z,34.10
2022-10-23T23:24:24.541Z,34.93
2022-10-23T23:26:53.749Z,34.80
2022-10-23T23:29:21.629Z,34.50
2022-10-23T23:31:49.178Z,37.20
2022-10-23T23:34:16.745Z,36.20
2022-10-23T23:36:44.346Z,35.70
2022-10-23T23:39:12.472Z,36.63
2022-10-23T23:41:40.049Z,37.30
2022-10-23T23:44:10.131Z,37.17
2022-10-23T23:46:37.727Z,36.63
2022-10-23T23:49:05.285Z,36.97
2022-10-23T23:51:33.094Z,37.63
2022-10-23T23:54:00.742Z,37.30
2022-10-23T23:56:29.017Z,38.20
2022-10-23T23:58:56.558Z,36.87
